createdAt,value
2019-02-15T00:05:40.278Z,0.27
2019-02-15T00:08:06.027Z,0.28
2019-02-15T00:10:31.796Z,0.26
2019-02-15T00:12:57.560Z,0.23
2019-02-15T00:15:23.335Z,0.20
2019-02-15T00:20:56.281Z,0.27
2019-02-15T00:23:22.056Z,0.21
2019-02-15T00:25:47.827Z,0.11
2019-02-15T00:28:13.581Z,0.15
2019-02-15T00:30:39.366Z,0.17
2019-02-15T00:33:05.120Z,0.13
2019-02-15T00:35:30.889Z,0.13
2019-02-15T00:37:56.671Z,0.15
2019-02-15T00:40:22.446Z,0.25
2019-02-15T00:42:48.202Z,0.42
2019-02-15T00:48:01.503Z,0.36
2019-02-15T00:50:44.170Z,0.27
2019-02-15T00:53:14.787Z,0.21
2019-02-15T00:55:58.605Z,0.24
2019-02-15T00:58:44.260Z,0.25
2019-02-15T01:01:17.706Z,0.21
2019-02-15T01:03:45.368Z,0.18
2019-02-15T01:06:13.033Z,0.08
2019-02-15T01:08:46.221Z,0.03
2019-02-15T01:11:16.665Z,0.05
2019-02-15T01:13:42.422Z,-0.06
2019-02-15T01:16:08.187Z,-0.16
2019-02-15T01:18:33.957Z,-0.22
2019-02-15T01:20:59.730Z,-0.23
2019-02-15T01:23:25.469Z,-0.24
2019-02-15T01:25:53.141Z,-0.22
2019-02-15T01:28:20.805Z,-0.19
2019-02-15T01:30:48.473Z,-0.22
2019-02-15T01:33:18.669Z,-0.32
2019-02-15T01:36:02.790Z,-0.37
2019-02-15T01:38:30.440Z,-0.41
2019-02-15T01:41:00.652Z,-0.51
2019-02-15T01:43:28.323Z,-0.52
2019-02-15T01:46:01.559Z,-0.58
2019-02-15T01:48:27.329Z,-0.52
2019-02-15T01:50:53.105Z,-0.54
2019-02-15T01:53:18.853Z,-0.58
2019-02-15T01:55:44.616Z,-0.65
2019-02-15T01:58:10.400Z,-0.78
2019-02-15T02:00:36.266Z,-0.77
2019-02-15T02:03:02.024Z,-0.83
2019-02-15T02:05:27.874Z,-0.87
2019-02-15T02:07:53.662Z,-0.84
2019-02-15T02:10:19.409Z,-0.77
2019-02-15T02:12:45.198Z,-0.81
2019-02-15T02:15:11.150Z,-0.83
2019-02-15T02:17:36.933Z,-0.85
2019-02-15T02:20:05.005Z,-0.82
2019-02-15T02:22:30.784Z,-0.84
2019-02-15T02:24:56.538Z,-0.89
2019-02-15T02:27:22.300Z,-0.94
2019-02-15T02:29:48.080Z,-1.09
2019-02-15T02:32:13.847Z,-1.14
2019-02-15T02:34:39.614Z,-1.09
2019-02-15T02:37:05.426Z,-1.11
2019-02-15T02:39:31.192Z,-1.21
2019-02-15T02:41:56.949Z,-1.24
2019-02-15T02:44:22.718Z,-1.26
2019-02-15T02:46:48.470Z,-1.27
2019-02-15T02:49:14.266Z,-1.23
2019-02-15T02:51:39.990Z,-1.20
2019-02-15T02:54:05.762Z,-1.23
2019-02-15T02:56:31.550Z,-1.22
2019-02-15T02:58:57.311Z,-1.28
2019-02-15T03:01:23.289Z,-1.31
2019-02-15T03:03:49.026Z,-1.39
2019-02-15T03:06:14.799Z,-1.30
2019-02-15T03:08:40.567Z,-1.31
2019-02-15T03:11:06.319Z,-1.33
2019-02-15T03:13:32.105Z,-1.29
2019-02-15T03:15:57.872Z,-1.21
2019-02-15T03:18:23.646Z,-1.16
2019-02-15T03:20:49.399Z,-1.18
2019-02-15T03:23:15.207Z,-1.30
2019-02-15T03:25:40.957Z,-1.41
2019-02-15T03:28:06.720Z,-1.45
2019-02-15T03:30:32.480Z,-1.47
2019-02-15T03:32:58.228Z,-1.39
2019-02-15T03:35:24.002Z,-1.40
2019-02-15T03:37:54.174Z,-1.35
2019-02-15T03:40:21.839Z,-1.39
2019-02-15T03:42:47.597Z,-1.36
2019-02-15T03:45:15.270Z,-1.37
2019-02-15T03:47:41.018Z,-1.48
2019-02-15T03:50:07.205Z,-1.53
2019-02-15T03:52:32.993Z,-1.46
2019-02-15T03:54:58.760Z,-1.35
2019-02-15T03:57:24.507Z,-1.38
2019-02-15T03:59:50.279Z,-1.39
2019-02-15T04:02:16.052Z,-1.44
2019-02-15T04:04:41.800Z,-1.51
2019-02-15T04:07:07.549Z,-1.52
2019-02-15T04:09:33.341Z,-1.57
2019-02-15T04:11:59.109Z,-1.64
2019-02-15T04:14:32.499Z,-1.61
2019-02-15T04:16:52.533Z,-1.55
2019-02-15T04:19:18.290Z,-1.48
2019-02-15T04:21:44.069Z,-1.48
2019-02-15T04:24:09.833Z,-1.51
2019-02-15T04:26:35.605Z,-1.42
2019-02-15T04:29:01.363Z,-1.45
2019-02-15T04:31:27.127Z,-1.53
2019-02-15T04:33:52.878Z,-1.63
2019-02-15T04:36:18.649Z,-1.71
2019-02-15T04:38:44.433Z,-1.72
2019-02-15T04:41:10.206Z,-1.74
2019-02-15T04:43:35.955Z,-1.60
2019-02-15T04:46:01.721Z,-1.57
2019-02-15T04:48:27.472Z,-1.64
2019-02-15T04:50:53.239Z,-1.67
2019-02-15T04:53:18.990Z,-1.74
2019-02-15T04:55:44.749Z,-1.74
2019-02-15T04:58:10.503Z,-1.78
2019-02-15T05:00:36.275Z,-1.82
2019-02-15T05:03:02.025Z,-1.81
2019-02-15T05:05:27.793Z,-1.80
2019-02-15T05:07:53.548Z,-1.78
2019-02-15T05:10:19.297Z,-1.81
2019-02-15T05:12:45.080Z,-1.85
2019-02-15T05:15:10.820Z,-1.82
2019-02-15T05:17:36.584Z,-1.62
2019-02-15T05:20:03.837Z,-1.43
2019-02-15T05:22:29.602Z,-1.31
2019-02-15T05:24:55.350Z,-1.29
2019-02-15T05:27:21.114Z,-1.27
2019-02-15T05:29:46.878Z,-1.28
2019-02-15T05:32:12.634Z,-1.31
2019-02-15T05:34:38.374Z,-1.31
2019-02-15T05:37:04.161Z,-1.32
2019-02-15T05:39:29.910Z,-1.28
2019-02-15T05:41:55.668Z,-1.20
2019-02-15T05:44:21.443Z,-1.18
2019-02-15T05:46:47.216Z,-1.20
2019-02-15T05:49:12.965Z,-1.23
2019-02-15T05:51:38.733Z,-1.22
2019-02-15T05:54:04.481Z,-1.20
2019-02-15T05:56:30.244Z,-1.15
2019-02-15T05:58:55.994Z,-1.17
2019-02-15T06:01:23.284Z,-1.22
2019-02-15T06:03:49.049Z,-1.27
2019-02-15T06:06:14.810Z,-1.31
2019-02-15T06:08:40.573Z,-1.34
2019-02-15T06:11:08.123Z,-1.16
2019-02-15T06:13:34.005Z,-1.02
2019-02-15T06:15:59.754Z,-0.88
2019-02-15T06:18:25.521Z,-0.88
2019-02-15T06:20:51.275Z,-1.00
2019-02-15T06:23:17.036Z,-1.09
2019-02-15T06:25:42.786Z,-1.18
2019-02-15T06:28:10.441Z,-1.25
2019-02-15T06:30:36.209Z,-1.26
2019-02-15T06:33:01.971Z,-1.28
2019-02-15T06:35:27.745Z,-1.38
2019-02-15T06:37:53.516Z,-1.38
2019-02-15T06:40:19.280Z,-1.37
2019-02-15T06:42:45.051Z,-1.35
2019-02-15T06:45:10.799Z,-1.36
2019-02-15T06:47:36.554Z,-1.41
2019-02-15T06:50:03.126Z,-1.44
2019-02-15T06:52:28.870Z,-1.46
2019-02-15T06:54:54.630Z,-1.41
2019-02-15T06:57:20.391Z,-1.35
2019-02-15T06:59:53.913Z,-1.35
2019-02-15T07:02:27.463Z,-1.41
2019-02-15T07:05:11.508Z,-1.43
2019-02-15T07:07:37.254Z,-1.41
2019-02-15T07:10:04.818Z,-1.37
2019-02-15T07:12:30.570Z,-1.30
2019-02-15T07:14:56.338Z,-1.23
2019-02-15T07:17:22.096Z,-1.75
2019-02-15T07:19:47.857Z,-1.19
2019-02-15T07:22:13.620Z,-1.16
2019-02-15T07:24:39.388Z,-1.16
2019-02-15T07:27:05.149Z,-1.10
2019-02-15T07:29:30.904Z,-1.02
2019-02-15T07:31:56.659Z,-0.92
2019-02-15T07:34:22.421Z,-0.92
2019-02-15T07:36:48.404Z,-0.89
2019-02-15T07:39:14.170Z,-0.68
2019-02-15T07:41:39.933Z,-0.68
2019-02-15T07:44:05.715Z,-0.58
2019-02-15T07:46:31.461Z,-0.48
2019-02-15T07:48:57.218Z,-0.38
2019-02-15T07:51:22.994Z,-0.28
2019-02-15T07:53:48.740Z,-0.21
2019-02-15T07:56:14.509Z,-0.10
2019-02-15T07:58:40.261Z,0.01
2019-02-15T08:01:06.032Z,0.13
2019-02-15T08:03:31.798Z,0.52
2019-02-15T08:05:57.572Z,0.52
2019-02-15T08:08:23.324Z,0.60
2019-02-15T08:10:49.099Z,0.64
2019-02-15T08:13:14.845Z,0.83
2019-02-15T08:15:40.621Z,0.93
2019-02-15T08:18:06.377Z,1.10
2019-02-15T08:20:32.154Z,1.34
2019-02-15T08:22:57.898Z,1.43
2019-02-15T08:25:23.668Z,1.62
2019-02-15T08:27:49.427Z,1.74
2019-02-15T08:30:15.199Z,1.87
2019-02-15T08:32:40.955Z,2.02
2019-02-15T08:35:08.772Z,2.15
2019-02-15T08:37:34.551Z,2.23
2019-02-15T08:40:00.353Z,2.38
2019-02-15T08:42:26.068Z,2.53
2019-02-15T08:44:51.819Z,2.70
2019-02-15T08:47:17.579Z,2.82
2019-02-15T08:49:43.337Z,2.95
2019-02-15T08:52:09.147Z,3.05
2019-02-15T08:54:34.901Z,3.15
2019-02-15T08:57:00.652Z,3.20
2019-02-15T08:59:26.405Z,3.27
2019-02-15T09:02:05.755Z,3.33
2019-02-15T09:04:31.506Z,3.40
2019-02-15T09:06:57.274Z,3.42
2019-02-15T09:09:23.031Z,3.46
2019-02-15T09:11:48.798Z,3.57
2019-02-15T09:14:14.545Z,3.61
2019-02-15T09:16:40.312Z,3.60
2019-02-15T09:19:06.067Z,3.68
2019-02-15T09:21:31.829Z,3.85
2019-02-15T09:23:57.590Z,3.96
2019-02-15T09:26:23.369Z,4.13
2019-02-15T09:28:51.023Z,4.41
2019-02-15T09:31:16.785Z,4.57
2019-02-15T09:33:42.557Z,4.75
2019-02-15T09:36:08.306Z,4.84
2019-02-15T09:38:34.094Z,5.06
2019-02-15T09:40:59.845Z,5.26
2019-02-15T09:43:25.613Z,5.53
2019-02-15T09:45:51.366Z,5.86
2019-02-15T09:48:17.143Z,6.17
2019-02-15T09:50:42.894Z,6.41
2019-02-15T09:53:08.758Z,6.66
2019-02-15T09:55:34.452Z,7.03
2019-02-15T09:58:00.222Z,7.16
2019-02-15T10:00:25.992Z,7.33
2019-02-15T10:02:51.761Z,7.50
2019-02-15T10:05:17.525Z,7.71
2019-02-15T10:07:43.301Z,8.05
2019-02-15T10:10:09.057Z,8.16
2019-02-15T10:12:34.816Z,8.18
2019-02-15T10:15:00.582Z,8.24
2019-02-15T10:17:26.336Z,8.31
2019-02-15T10:19:52.106Z,8.52
2019-02-15T10:22:17.864Z,8.68
2019-02-15T10:24:43.650Z,8.66
2019-02-15T10:27:09.398Z,8.71
2019-02-15T10:29:35.158Z,8.94
2019-02-15T10:32:01.020Z,8.99
2019-02-15T10:34:26.773Z,9.12
2019-02-15T10:36:52.545Z,9.21
2019-02-15T10:39:18.317Z,9.27
2019-02-15T10:41:44.074Z,9.32
2019-02-15T10:44:09.845Z,9.38
2019-02-15T10:46:37.859Z,9.60
2019-02-15T10:49:03.290Z,9.71
2019-02-15T10:51:29.061Z,9.71
2019-02-15T10:53:54.815Z,9.81
2019-02-15T10:56:20.574Z,9.93
2019-02-15T10:58:46.341Z,10.01
2019-02-15T11:01:12.101Z,10.26
2019-02-15T11:03:37.854Z,10.38
2019-02-15T11:06:03.619Z,10.31
2019-02-15T11:08:29.367Z,10.43
2019-02-15T11:10:55.157Z,10.62
2019-02-15T11:13:20.877Z,10.86
2019-02-15T11:15:46.637Z,11.04
2019-02-15T11:18:12.384Z,11.06
2019-02-15T11:20:38.153Z,11.22
2019-02-15T11:23:04.101Z,11.17
2019-02-15T11:25:29.937Z,11.22
2019-02-15T11:27:55.738Z,11.24
2019-02-15T11:30:21.546Z,11.40
2019-02-15T11:32:47.323Z,11.51
2019-02-15T11:35:13.089Z,11.61
2019-02-15T11:37:38.878Z,11.79
2019-02-15T11:40:08.472Z,11.94
2019-02-15T11:42:36.200Z,11.97
2019-02-15T11:45:04.159Z,12.07
2019-02-15T11:47:31.014Z,12.19
2019-02-15T11:49:56.850Z,12.27
2019-02-15T11:52:22.641Z,12.24
2019-02-15T11:54:48.421Z,12.31
2019-02-15T11:57:14.223Z,12.32
2019-02-15T11:59:40.010Z,12.36
2019-02-15T12:02:06.672Z,12.33
2019-02-15T12:04:32.487Z,12.36
2019-02-15T12:06:58.276Z,12.32
2019-02-15T12:09:24.039Z,12.45
2019-02-15T12:11:49.867Z,12.49
2019-02-15T12:14:15.648Z,12.51
2019-02-15T12:16:41.517Z,12.58
2019-02-15T12:19:07.294Z,12.65
2019-02-15T12:21:33.086Z,12.65
2019-02-15T12:23:58.842Z,12.73
2019-02-15T12:26:24.652Z,12.83
2019-02-15T12:28:50.446Z,12.82
2019-02-15T12:31:16.226Z,12.94
2019-02-15T12:33:42.030Z,13.15
2019-02-15T12:36:07.882Z,13.35
2019-02-15T12:38:33.741Z,13.29
2019-02-15T12:40:59.545Z,13.15
2019-02-15T12:43:25.383Z,13.14
2019-02-15T12:45:51.186Z,13.28
2019-02-15T12:48:17.002Z,13.30
2019-02-15T12:50:43.047Z,13.41
2019-02-15T12:53:08.873Z,13.47
2019-02-15T12:55:34.700Z,13.48
2019-02-15T12:58:00.503Z,13.43
2019-02-15T13:00:26.290Z,13.46
2019-02-15T13:02:52.091Z,13.54
2019-02-15T13:05:17.958Z,13.50
2019-02-15T13:07:43.770Z,13.62
2019-02-15T13:10:12.362Z,13.57
2019-02-15T13:12:38.122Z,13.57
2019-02-15T13:15:08.616Z,13.64
2019-02-15T13:17:34.432Z,13.63
2019-02-15T13:20:00.239Z,13.83
2019-02-15T13:22:26.063Z,13.81
2019-02-15T13:24:51.858Z,13.79
2019-02-15T13:27:17.629Z,13.74
2019-02-15T13:29:43.452Z,13.79
2019-02-15T13:32:09.210Z,13.83
2019-02-15T13:34:35.068Z,13.94
2019-02-15T13:37:00.840Z,13.98
2019-02-15T13:39:26.670Z,13.76
2019-02-15T13:41:52.454Z,13.62
2019-02-15T13:44:18.273Z,13.52
2019-02-15T13:46:45.958Z,13.46
2019-02-15T13:49:13.069Z,13.45
2019-02-15T13:51:38.897Z,13.23
2019-02-15T13:54:04.693Z,13.07
2019-02-15T13:56:30.463Z,13.09
2019-02-15T13:58:56.233Z,13.13
2019-02-15T14:01:22.227Z,13.16
2019-02-15T14:03:48.082Z,13.17
2019-02-15T14:06:13.933Z,13.10
2019-02-15T14:08:39.697Z,13.12
2019-02-15T14:11:05.546Z,13.09
2019-02-15T14:13:31.332Z,13.03
2019-02-15T14:15:57.109Z,13.11
2019-02-15T14:18:22.887Z,13.12
2019-02-15T14:20:48.715Z,13.17
2019-02-15T14:23:14.553Z,13.14
2019-02-15T14:25:40.344Z,13.13
2019-02-15T14:28:06.346Z,13.12
2019-02-15T14:30:32.136Z,13.05
2019-02-15T14:32:57.882Z,13.08
2019-02-15T14:35:23.753Z,13.08
2019-02-15T14:37:49.551Z,13.10
2019-02-15T14:40:15.514Z,13.08
2019-02-15T14:42:41.260Z,13.06
2019-02-15T14:45:08.829Z,13.02
2019-02-15T14:47:34.584Z,13.07
2019-02-15T14:50:00.506Z,12.91
2019-02-15T14:52:26.220Z,12.84
2019-02-15T14:54:51.971Z,12.84
2019-02-15T14:57:17.740Z,12.80
2019-02-15T14:59:43.484Z,12.86
2019-02-15T15:02:09.248Z,12.86
2019-02-15T15:04:35.006Z,12.76
2019-02-15T15:07:00.774Z,12.72
2019-02-15T15:09:26.519Z,12.82
2019-02-15T15:11:52.905Z,12.77
2019-02-15T15:14:18.733Z,12.70
2019-02-15T15:16:44.497Z,12.65
2019-02-15T15:19:10.253Z,12.53
2019-02-15T15:21:36.029Z,12.31
2019-02-15T15:24:01.790Z,12.20
2019-02-15T15:26:27.553Z,12.12
2019-02-15T15:28:53.300Z,12.08
2019-02-15T15:31:19.060Z,11.97
2019-02-15T15:33:44.803Z,11.86
2019-02-15T15:36:10.590Z,11.72
2019-02-15T15:38:36.367Z,11.63
2019-02-15T15:41:02.139Z,11.49
2019-02-15T15:43:27.889Z,11.43
2019-02-15T15:45:53.654Z,11.47
2019-02-15T15:48:22.661Z,11.53
2019-02-15T15:50:47.073Z,11.51
2019-02-15T15:53:12.838Z,11.43
2019-02-15T15:55:38.590Z,11.29
2019-02-15T15:58:04.370Z,11.19
2019-02-15T16:00:38.674Z,11.13
2019-02-15T16:02:57.800Z,11.02
2019-02-15T16:05:23.547Z,10.91
2019-02-15T16:07:49.342Z,10.87
2019-02-15T16:10:15.117Z,10.77
2019-02-15T16:12:40.889Z,10.61
2019-02-15T16:15:08.923Z,10.50
2019-02-15T16:17:34.713Z,10.39
2019-02-15T16:20:01.193Z,10.29
2019-02-15T16:22:26.970Z,10.23
2019-02-15T16:24:52.730Z,10.14
2019-02-15T16:27:18.492Z,10.03
2019-02-15T16:29:44.242Z,9.96
2019-02-15T16:32:10.011Z,9.86
2019-02-15T16:34:35.751Z,9.72
2019-02-15T16:37:01.568Z,9.60
2019-02-15T16:39:27.351Z,9.52
2019-02-15T16:41:53.159Z,9.51
2019-02-15T16:44:18.908Z,9.46
2019-02-15T16:46:44.662Z,9.41
2019-02-15T16:49:10.456Z,9.27
2019-02-15T16:51:36.217Z,9.05
2019-02-15T16:54:03.424Z,8.94
2019-02-15T16:56:29.205Z,8.62
2019-02-15T16:58:54.951Z,8.62
2019-02-15T17:01:20.829Z,8.62
2019-02-15T17:03:46.597Z,8.62
2019-02-15T17:06:12.347Z,8.64
2019-02-15T17:08:38.109Z,8.71
2019-02-15T17:11:03.912Z,8.77
2019-02-15T17:13:29.966Z,8.81
2019-02-15T17:15:55.746Z,8.79
2019-02-15T17:18:21.513Z,8.71
2019-02-15T17:20:47.260Z,8.64
2019-02-15T17:23:13.025Z,8.66
2019-02-15T17:25:38.777Z,8.67
2019-02-15T17:28:04.540Z,8.62
2019-02-15T17:30:30.306Z,8.56
2019-02-15T17:32:56.093Z,8.45
2019-02-15T17:35:21.852Z,8.42
2019-02-15T17:37:47.629Z,8.36
2019-02-15T17:40:14.798Z,8.36
2019-02-15T17:42:40.559Z,8.23
2019-02-15T17:45:08.431Z,8.23
2019-02-15T17:47:34.186Z,8.08
2019-02-15T17:49:59.955Z,7.83
2019-02-15T17:52:25.714Z,7.68
2019-02-15T17:54:51.488Z,7.54
2019-02-15T17:57:17.257Z,7.47
2019-02-15T17:59:43.033Z,7.38
2019-02-15T18:02:09.184Z,7.30
2019-02-15T18:04:34.952Z,7.24
2019-02-15T18:07:00.700Z,7.19
2019-02-15T18:09:26.459Z,7.11
2019-02-15T18:11:52.209Z,7.03
2019-02-15T18:14:17.982Z,6.94
2019-02-15T18:16:43.778Z,6.81
2019-02-15T18:19:10.430Z,6.85
2019-02-15T18:21:36.386Z,6.79
2019-02-15T18:24:02.106Z,6.80
2019-02-15T18:26:27.909Z,6.87
2019-02-15T18:28:55.053Z,6.95
2019-02-15T18:31:20.821Z,7.05
2019-02-15T18:33:48.020Z,7.00
2019-02-15T18:36:15.113Z,6.93
2019-02-15T18:38:40.896Z,6.85
2019-02-15T18:41:13.334Z,6.85
2019-02-15T18:43:34.288Z,6.84
2019-02-15T18:46:00.053Z,6.87
2019-02-15T18:48:25.815Z,6.87
2019-02-15T18:50:51.578Z,6.84
2019-02-15T18:53:17.353Z,6.71
2019-02-15T18:55:43.117Z,6.56
2019-02-15T18:58:08.869Z,6.43
2019-02-15T19:00:34.633Z,6.33
2019-02-15T19:03:00.394Z,6.17
2019-02-15T19:05:26.162Z,6.07
2019-02-15T19:07:51.922Z,5.87
2019-02-15T19:10:21.979Z,5.74
2019-02-15T19:12:47.729Z,5.67
2019-02-15T19:15:14.780Z,5.60
2019-02-15T19:17:40.543Z,5.57
2019-02-15T19:20:08.915Z,5.51
2019-02-15T19:22:34.666Z,5.47
2019-02-15T19:25:00.431Z,5.40
2019-02-15T19:27:26.200Z,5.41
2019-02-15T19:29:51.955Z,5.31
2019-02-15T19:32:17.832Z,5.18
2019-02-15T19:34:43.593Z,5.06
2019-02-15T19:37:09.399Z,4.97
2019-02-15T19:39:35.163Z,4.90
2019-02-15T19:42:01.422Z,4.87
2019-02-15T19:44:27.171Z,4.85
2019-02-15T19:46:52.938Z,4.88
2019-02-15T19:49:18.705Z,4.90
2019-02-15T19:51:44.475Z,4.89
2019-02-15T19:54:10.235Z,4.85
2019-02-15T19:56:36.010Z,4.73
2019-02-15T19:59:01.768Z,4.68
2019-02-15T20:01:27.517Z,4.59
2019-02-15T20:03:53.293Z,4.55
2019-02-15T20:06:19.340Z,4.50
2019-02-15T20:08:45.112Z,4.48
2019-02-15T20:11:11.037Z,4.44
2019-02-15T20:13:36.798Z,4.43
2019-02-15T20:16:02.552Z,4.37
2019-02-15T20:18:28.325Z,4.28
2019-02-15T20:20:54.071Z,4.23
2019-02-15T20:23:19.837Z,4.23
2019-02-15T20:25:45.591Z,4.15
2019-02-15T20:28:14.202Z,4.08
2019-02-15T20:30:39.000Z,3.95
2019-02-15T20:33:04.762Z,3.85
2019-02-15T20:35:30.524Z,3.79
2019-02-15T20:37:56.293Z,3.74
2019-02-15T20:40:22.071Z,3.72
2019-02-15T20:42:48.087Z,3.75
2019-02-15T20:45:16.708Z,3.76
2019-02-15T20:47:42.469Z,3.72
2019-02-15T20:50:09.823Z,3.73
2019-02-15T20:52:35.587Z,3.63
2019-02-15T20:55:01.352Z,3.56
2019-02-15T20:57:27.088Z,3.53
2019-02-15T20:59:52.858Z,3.47
2019-02-15T21:02:19.094Z,3.46
2019-02-15T21:04:45.472Z,3.39
2019-02-15T21:07:11.621Z,3.35
2019-02-15T21:09:37.613Z,3.32
2019-02-15T21:12:03.410Z,3.23
2019-02-15T21:14:30.985Z,3.14
2019-02-15T21:16:56.741Z,3.12
2019-02-15T21:19:22.520Z,3.12
2019-02-15T21:21:48.267Z,3.07
2019-02-15T21:24:14.260Z,3.02
2019-02-15T21:26:40.481Z,3.04
2019-02-15T21:29:06.534Z,3.05
2019-02-15T21:31:32.584Z,3.01
2019-02-15T21:33:58.458Z,2.98
2019-02-15T21:36:24.400Z,2.89
2019-02-15T21:38:50.394Z,2.86
2019-02-15T21:41:16.157Z,2.87
2019-02-15T21:43:41.923Z,2.83
2019-02-15T21:46:09.238Z,2.80
2019-02-15T21:48:35.198Z,2.79
2019-02-15T21:51:01.207Z,2.72
2019-02-15T21:53:27.361Z,2.65
2019-02-15T21:55:53.298Z,2.66
2019-02-15T21:58:19.217Z,2.67
2019-02-15T22:00:44.967Z,2.67
2019-02-15T22:03:10.713Z,2.72
2019-02-15T22:05:36.474Z,2.82
2019-02-15T22:08:02.514Z,2.85
2019-02-15T22:10:28.578Z,2.93
2019-02-15T22:12:54.536Z,3.00
2019-02-15T22:15:20.716Z,2.96
2019-02-15T22:17:46.465Z,2.84
2019-02-15T22:20:13.328Z,2.73
2019-02-15T22:22:39.353Z,2.73
2019-02-15T22:25:05.918Z,2.69
2019-02-15T22:27:31.668Z,2.60
2019-02-15T22:29:57.541Z,2.54
2019-02-15T22:32:23.454Z,2.46
2019-02-15T22:34:49.535Z,2.45
2019-02-15T22:37:16.920Z,2.45
2019-02-15T22:39:42.930Z,2.38
2019-02-15T22:42:08.820Z,2.40
2019-02-15T22:44:35.095Z,2.56
2019-02-15T22:47:01.740Z,2.73
2019-02-15T22:49:27.507Z,2.83
2019-02-15T22:51:53.576Z,2.93
2019-02-15T22:54:19.450Z,2.89
2019-02-15T22:56:46.023Z,2.90
2019-02-15T22:59:11.974Z,2.91
2019-02-15T23:01:37.824Z,2.93
2019-02-15T23:04:03.973Z,2.89
2019-02-15T23:06:29.892Z,2.79
2019-02-15T23:08:55.643Z,2.66
2019-02-15T23:11:21.406Z,2.51
2019-02-15T23:13:47.157Z,2.44
2019-02-15T23:16:12.920Z,2.39
2019-02-15T23:18:38.672Z,2.33
2019-02-15T23:21:04.433Z,2.29
2019-02-15T23:23:30.303Z,2.23
2019-02-15T23:25:56.090Z,2.17
2019-02-15T23:28:21.967Z,2.13
2019-02-15T23:30:47.727Z,2.27
2019-02-15T23:33:13.486Z,2.37
2019-02-15T23:35:39.251Z,2.42
2019-02-15T23:38:04.997Z,2.51
2019-02-15T23:40:30.786Z,2.52
2019-02-15T23:42:56.531Z,2.50
2019-02-15T23:45:22.343Z,2.42
2019-02-15T23:47:48.262Z,2.40
2019-02-15T23:50:14.031Z,2.42
2019-02-15T23:52:39.740Z,2.45
2019-02-15T23:55:05.504Z,2.57
2019-02-15T23:57:31.247Z,2.76
2019-02-15T23:59:57.000Z,2.95
